createdAt,value
2019-01-31T00:00:32.798Z,94848.22
2019-01-31T00:03:40.198Z,94837.34
2019-01-31T00:06:59.730Z,94836.45
2019-01-31T00:10:00.481Z,94838.06
2019-01-31T00:13:11.822Z,94824.78
2019-01-31T00:16:16.382Z,94824.16
2019-01-31T00:19:18.305Z,94824.46
2019-01-31T00:22:58.667Z,94818.98
2019-01-31T00:26:11.927Z,94813.27
2019-01-31T00:29:11.818Z,94806.34
2019-01-31T00:32:12.867Z,94805.77
2019-01-31T00:35:38.848Z,94808.56
2019-01-31T00:38:56.960Z,94799.57
2019-01-31T00:42:11.480Z,94801.06
2019-01-31T00:45:11.930Z,94790.33
2019-01-31T00:48:32.615Z,94784.73
2019-01-31T00:51:47.307Z,94789.64
2019-01-31T00:55:26.618Z,94790.77
2019-01-31T00:58:25.612Z,94793.20
2019-01-31T01:01:26.426Z,94792.23
2019-01-31T01:05:13.171Z,94792.14
2019-01-31T01:08:04.354Z,94788.63
2019-01-31T01:11:26.597Z,94789.53
2019-01-31T01:14:38.606Z,94785.13
2019-01-31T01:17:16.771Z,94780.04
2019-01-31T01:20:41.453Z,94783.83
2019-01-31T01:23:54.131Z,94781.77
2019-01-31T01:27:02.376Z,94783.26
2019-01-31T01:30:18.170Z,94776.69
2019-01-31T01:34:00.526Z,94779.76
2019-01-31T01:36:59.328Z,94776.55
2019-01-31T01:40:47.273Z,94783.53
2019-01-31T01:44:11.464Z,94780.04
2019-01-31T01:47:19.278Z,94779.45
2019-01-31T01:50:06.764Z,94778.56
2019-01-31T01:53:18.806Z,94774.05
2019-01-31T01:56:56.009Z,94769.39
2019-01-31T02:00:14.613Z,94772.79
2019-01-31T02:04:03.062Z,94771.16
2019-01-31T02:07:17.379Z,94768.45
2019-01-31T02:10:44.619Z,94762.84
2019-01-31T02:13:58.050Z,94763.66
2019-01-31T02:17:21.044Z,94752.10
2019-01-31T02:20:51.649Z,94751.25
2019-01-31T02:24:14.673Z,94755.88
2019-01-31T02:27:17.429Z,94753.08
2019-01-31T02:30:15.827Z,94754.86
2019-01-31T02:33:13.043Z,94749.06
2019-01-31T02:36:28.927Z,94738.66
2019-01-31T02:40:04.456Z,94745.08
2019-01-31T02:43:17.162Z,94741.91
2019-01-31T02:46:39.373Z,94729.14
2019-01-31T02:49:49.871Z,94722.00
2019-01-31T02:53:08.102Z,94720.00
2019-01-31T02:56:47.426Z,94722.30
2019-01-31T03:00:12.291Z,94713.70
2019-01-31T03:03:03.375Z,94701.14
2019-01-31T03:06:33.100Z,94699.66
2019-01-31T03:10:05.939Z,94697.88
2019-01-31T03:13:00.927Z,94700.30
2019-01-31T03:16:12.616Z,94691.71
2019-01-31T03:19:28.303Z,94690.94
2019-01-31T03:23:06.747Z,94702.69
2019-01-31T03:26:43.404Z,94691.23
2019-01-31T03:30:33.905Z,94692.59
2019-01-31T03:33:55.700Z,94689.71
2019-01-31T03:37:09.721Z,94691.02
2019-01-31T03:40:41.007Z,94681.30
2019-01-31T03:44:04.075Z,94683.34
2019-01-31T03:47:25.598Z,94684.62
2019-01-31T03:50:36.390Z,94688.81
2019-01-31T03:53:40.599Z,94682.13
2019-01-31T03:57:04.711Z,94679.74
2019-01-31T04:00:20.950Z,94671.01
2019-01-31T04:03:06.056Z,94679.58
2019-01-31T04:05:53.781Z,94676.36
2019-01-31T04:08:25.159Z,94664.80
2019-01-31T04:10:56.474Z,94670.33
2019-01-31T04:13:27.472Z,94667.36
2019-01-31T04:15:58.448Z,94668.51
2019-01-31T04:18:29.412Z,94673.30
2019-01-31T04:21:00.646Z,94667.22
2019-01-31T04:23:32.134Z,94672.39
2019-01-31T04:26:07.111Z,94668.13
2019-01-31T04:28:38.098Z,94667.02
2019-01-31T04:31:09.152Z,94668.61
2019-01-31T04:33:40.177Z,94667.92
2019-01-31T04:36:11.320Z,94667.36
2019-01-31T04:41:04.727Z,94665.98
2019-01-31T04:43:36.933Z,94667.17
2019-01-31T04:46:07.923Z,94663.13
2019-01-31T04:48:40.283Z,94664.91
2019-01-31T04:51:12.178Z,94659.86
2019-01-31T04:53:43.251Z,94660.66
2019-01-31T04:56:14.386Z,94660.98
2019-01-31T04:58:45.389Z,94661.75
2019-01-31T05:01:16.470Z,94655.89
2019-01-31T05:03:47.496Z,94664.79
2019-01-31T05:06:18.629Z,94655.16
2019-01-31T05:08:50.249Z,94655.72
2019-01-31T05:11:21.248Z,94654.91
2019-01-31T05:13:52.360Z,94651.47
2019-01-31T05:16:23.915Z,94648.88
2019-01-31T05:18:54.933Z,94649.64
2019-01-31T05:21:26.012Z,94651.59
2019-01-31T05:23:56.987Z,94652.57
2019-01-31T05:26:28.529Z,94658.75
2019-01-31T05:28:59.689Z,94653.44
2019-01-31T05:31:30.902Z,94660.70
2019-01-31T05:34:02.522Z,94664.29
2019-01-31T05:36:33.575Z,94655.08
2019-01-31T05:39:07.840Z,94664.58
2019-01-31T05:41:38.983Z,94681.00
2019-01-31T05:44:09.958Z,94677.06
2019-01-31T05:46:41.241Z,94677.88
2019-01-31T05:49:13.226Z,94679.98
2019-01-31T05:51:44.769Z,94676.20
2019-01-31T05:54:16.033Z,94670.86
2019-01-31T05:56:47.325Z,94661.89
2019-01-31T05:59:18.552Z,94677.34
2019-01-31T06:01:49.798Z,94679.09
2019-01-31T06:04:21.044Z,94681.80
2019-01-31T06:06:52.027Z,94683.66
2019-01-31T06:09:23.330Z,94683.19
2019-01-31T06:11:54.718Z,94685.12
2019-01-31T06:14:25.842Z,94685.59
2019-01-31T06:16:57.132Z,94693.05
2019-01-31T06:19:28.115Z,94692.24
2019-01-31T06:22:00.073Z,94687.38
2019-01-31T06:24:32.521Z,94694.36
2019-01-31T06:27:03.575Z,94689.79
2019-01-31T06:29:34.660Z,94690.11
2019-01-31T06:32:05.772Z,94693.86
2019-01-31T06:34:38.268Z,94694.18
2019-01-31T06:37:11.136Z,94687.72
2019-01-31T06:39:42.101Z,94682.55
2019-01-31T06:42:13.155Z,94685.53
2019-01-31T06:44:44.150Z,94686.63
2019-01-31T06:47:15.129Z,94685.23
2019-01-31T06:49:46.789Z,94687.77
2019-01-31T06:52:17.782Z,94684.17
2019-01-31T06:54:49.037Z,94687.57
2019-01-31T06:57:20.020Z,94689.56
2019-01-31T06:59:51.635Z,94688.25
2019-01-31T07:02:22.883Z,94695.53
2019-01-31T07:04:53.842Z,94696.83
2019-01-31T07:07:24.847Z,94700.80
2019-01-31T07:09:56.079Z,94697.42
2019-01-31T07:12:27.297Z,94697.72
2019-01-31T07:14:58.418Z,94711.39
2019-01-31T07:17:29.402Z,94709.80
2019-01-31T07:20:00.681Z,94707.40
2019-01-31T07:22:32.603Z,94718.78
2019-01-31T07:25:03.763Z,94715.58
2019-01-31T07:27:34.748Z,94717.06
2019-01-31T07:30:08.284Z,94716.08
2019-01-31T07:32:39.410Z,94719.86
2019-01-31T07:35:12.852Z,94723.02
2019-01-31T07:37:44.216Z,94725.94
2019-01-31T07:40:18.047Z,94732.20
2019-01-31T07:42:49.126Z,94731.50
2019-01-31T07:45:26.914Z,94724.34
2019-01-31T07:47:58.188Z,94734.80
2019-01-31T07:50:29.309Z,94728.23
2019-01-31T07:53:00.595Z,94730.61
2019-01-31T07:55:32.771Z,94729.22
2019-01-31T07:58:04.192Z,94735.88
2019-01-31T08:00:35.532Z,94736.77
2019-01-31T08:03:06.764Z,94738.69
2019-01-31T08:05:39.599Z,94741.18
2019-01-31T08:08:11.358Z,94740.66
2019-01-31T08:10:43.841Z,94742.17
2019-01-31T08:13:15.287Z,94738.39
2019-01-31T08:15:46.728Z,94735.78
2019-01-31T08:18:17.713Z,94741.95
2019-01-31T08:20:48.740Z,94743.07
2019-01-31T08:23:19.718Z,94744.36
2019-01-31T08:25:50.686Z,94740.17
2019-01-31T08:28:22.742Z,94737.77
2019-01-31T08:30:53.787Z,94738.66
2019-01-31T08:33:25.188Z,94736.97
2019-01-31T08:35:56.310Z,94746.87
2019-01-31T08:38:28.051Z,94743.24
2019-01-31T08:40:59.294Z,94741.97
2019-01-31T08:43:30.281Z,94746.94
2019-01-31T08:46:02.634Z,94746.12
2019-01-31T08:48:34.113Z,94740.25
2019-01-31T08:51:05.434Z,94746.91
2019-01-31T08:53:36.493Z,94747.58
2019-01-31T08:56:07.618Z,94753.49
2019-01-31T08:58:39.968Z,94747.80
2019-01-31T09:01:11.212Z,94751.38
2019-01-31T09:03:43.310Z,94747.81
2019-01-31T09:06:15.099Z,94748.57
2019-01-31T09:08:46.440Z,94748.08
2019-01-31T09:11:17.728Z,94748.06
2019-01-31T09:13:49.786Z,94754.32
2019-01-31T09:16:20.902Z,94752.19
2019-01-31T09:18:52.018Z,94759.38
2019-01-31T09:21:56.189Z,94756.28
2019-01-31T09:25:13.022Z,94753.69
2019-01-31T09:28:14.878Z,94757.09
2019-01-31T09:31:29.876Z,94756.26
2019-01-31T09:35:01.366Z,94757.61
2019-01-31T09:38:29.236Z,94757.33
2019-01-31T09:41:46.556Z,94760.88
2019-01-31T09:45:32.380Z,94758.64
2019-01-31T09:49:07.142Z,94764.77
2019-01-31T09:52:30.632Z,94776.83
2019-01-31T09:55:51.831Z,94769.52
2019-01-31T09:58:37.816Z,94775.29
2019-01-31T10:01:45.792Z,94772.48
2019-01-31T10:04:28.383Z,94774.39
2019-01-31T10:07:45.985Z,94772.96
2019-01-31T10:10:56.504Z,94769.64
2019-01-31T10:14:29.620Z,94776.53
2019-01-31T10:17:59.068Z,94769.76
2019-01-31T10:21:10.440Z,94761.83
2019-01-31T10:24:30.287Z,94764.97
2019-01-31T10:27:58.490Z,94755.95
2019-01-31T10:31:07.105Z,94756.87
2019-01-31T10:34:16.432Z,94756.69
2019-01-31T10:37:43.990Z,94753.30
2019-01-31T10:40:53.509Z,94738.30
2019-01-31T10:44:23.395Z,94738.29
2019-01-31T10:48:06.522Z,94737.25
2019-01-31T10:51:25.385Z,94728.20
2019-01-31T10:54:15.208Z,94722.75
2019-01-31T10:57:27.437Z,94723.00
2019-01-31T11:01:08.137Z,94717.75
2019-01-31T11:04:23.999Z,94722.66
2019-01-31T11:07:38.647Z,94724.67
2019-01-31T11:11:08.185Z,94716.61
2019-01-31T11:14:34.593Z,94713.19
2019-01-31T11:18:11.570Z,94708.53
2019-01-31T11:21:44.591Z,94708.16
2019-01-31T11:25:24.240Z,94706.97
2019-01-31T11:28:49.532Z,94699.14
2019-01-31T11:32:06.202Z,94697.52
2019-01-31T11:35:21.426Z,94689.07
2019-01-31T11:38:49.666Z,94689.52
2019-01-31T11:41:55.163Z,94693.27
2019-01-31T11:45:43.587Z,94688.59
2019-01-31T11:48:54.961Z,94682.33
2019-01-31T11:52:29.760Z,94678.41
2019-01-31T11:55:40.575Z,94682.88
2019-01-31T11:59:03.239Z,94681.08
2019-01-31T12:01:35.431Z,94672.20
2019-01-31T12:04:16.089Z,94657.91
2019-01-31T12:06:47.408Z,94660.55
2019-01-31T12:09:20.925Z,94660.59
2019-01-31T12:11:52.700Z,94651.41
2019-01-31T12:14:23.803Z,94645.19
2019-01-31T12:16:54.851Z,94642.00
2019-01-31T12:19:26.035Z,94635.23
2019-01-31T12:21:57.473Z,94644.96
2019-01-31T12:24:28.471Z,94642.05
2019-01-31T12:26:59.658Z,94639.61
2019-01-31T12:29:31.010Z,94635.84
2019-01-31T12:32:03.375Z,94633.86
2019-01-31T12:34:34.594Z,94631.59
2019-01-31T12:37:05.984Z,94635.23
2019-01-31T12:39:37.018Z,94642.17
2019-01-31T12:42:09.310Z,94639.19
2019-01-31T12:44:40.543Z,94642.22
2019-01-31T12:47:11.672Z,94634.56
2019-01-31T12:49:42.708Z,94635.87
2019-01-31T12:52:14.090Z,94634.16
2019-01-31T12:54:45.279Z,94636.50
2019-01-31T12:57:16.415Z,94633.16
2019-01-31T12:59:47.901Z,94635.23
2019-01-31T13:02:18.966Z,94631.83
2019-01-31T13:04:50.293Z,94621.91
2019-01-31T13:07:23.007Z,94626.13
2019-01-31T13:09:54.200Z,94617.77
2019-01-31T13:12:25.681Z,94620.10
2019-01-31T13:14:56.755Z,94614.88
2019-01-31T13:17:28.207Z,94620.51
2019-01-31T13:19:59.334Z,94609.88
2019-01-31T13:22:30.411Z,94604.08
2019-01-31T13:25:02.036Z,94599.70
2019-01-31T13:27:33.552Z,94605.52
2019-01-31T13:30:05.275Z,94599.08
2019-01-31T13:32:36.829Z,94597.81
2019-01-31T13:35:09.515Z,94593.45
2019-01-31T13:37:40.495Z,94592.02
2019-01-31T13:40:21.576Z,94588.23
2019-01-31T13:42:53.882Z,94593.37
2019-01-31T13:45:29.190Z,94602.22
2019-01-31T13:48:04.398Z,94600.83
2019-01-31T13:50:36.526Z,94599.56
2019-01-31T13:53:09.063Z,94607.95
2019-01-31T13:55:40.517Z,94605.97
2019-01-31T13:58:11.886Z,94604.39
2019-01-31T14:00:43.268Z,94605.27
2019-01-31T14:03:14.255Z,94602.58
2019-01-31T14:05:45.330Z,94602.08
2019-01-31T14:08:16.326Z,94602.75
2019-01-31T14:10:47.381Z,94600.61
2019-01-31T14:13:18.428Z,94593.41
2019-01-31T14:15:49.466Z,94600.11
2019-01-31T14:18:20.456Z,94600.73
2019-01-31T14:20:51.613Z,94598.73
2019-01-31T14:23:22.674Z,94597.16
2019-01-31T14:25:53.772Z,94599.23
2019-01-31T14:28:24.857Z,94604.33
2019-01-31T14:30:56.273Z,94601.09
2019-01-31T14:33:28.668Z,94596.00
2019-01-31T14:36:01.964Z,94591.81
2019-01-31T14:38:33.948Z,94584.20
2019-01-31T14:41:05.304Z,94584.93
2019-01-31T14:43:36.403Z,94580.06
2019-01-31T14:46:07.678Z,94581.77
2019-01-31T14:48:38.730Z,94584.20
2019-01-31T14:51:09.939Z,94583.30
2019-01-31T14:53:41.305Z,94580.79
2019-01-31T14:56:12.375Z,94579.28
2019-01-31T14:58:43.925Z,94574.97
2019-01-31T15:01:15.445Z,94574.62
2019-01-31T15:03:46.497Z,94573.36
2019-01-31T15:06:17.828Z,94569.09
2019-01-31T15:08:49.170Z,94571.20
2019-01-31T15:11:20.363Z,94571.20
2019-01-31T15:13:51.329Z,94566.11
2019-01-31T15:16:22.714Z,94566.69
2019-01-31T15:18:53.937Z,94570.77
2019-01-31T15:21:24.933Z,94565.73
2019-01-31T15:23:55.914Z,94567.66
2019-01-31T15:26:29.048Z,94559.75
2019-01-31T15:28:59.690Z,94568.89
2019-01-31T15:31:31.112Z,94559.42
2019-01-31T15:34:02.200Z,94556.77
2019-01-31T15:36:34.524Z,94555.23
2019-01-31T15:39:08.913Z,94557.27
2019-01-31T15:41:40.199Z,94562.43
2019-01-31T15:44:11.567Z,94556.94
2019-01-31T15:46:42.650Z,94556.08
2019-01-31T15:49:13.642Z,94552.84
2019-01-31T15:51:44.799Z,94550.67
2019-01-31T15:54:18.380Z,94551.86
2019-01-31T15:56:49.497Z,94546.06
2019-01-31T15:59:20.781Z,94543.78
2019-01-31T16:01:52.371Z,94543.13
2019-01-31T16:04:23.450Z,94538.24
2019-01-31T16:06:54.537Z,94537.91
2019-01-31T16:09:25.564Z,94539.05
2019-01-31T16:11:56.599Z,94537.86
2019-01-31T16:14:27.581Z,94539.88
2019-01-31T16:16:58.970Z,94547.03
2019-01-31T16:19:30.113Z,94540.95
2019-01-31T16:22:01.788Z,94540.23
2019-01-31T16:24:34.351Z,94530.75
2019-01-31T16:27:05.848Z,94532.48
2019-01-31T16:29:36.949Z,94523.21
2019-01-31T16:32:08.227Z,94522.56
2019-01-31T16:34:39.559Z,94522.56
2019-01-31T16:37:12.668Z,94518.45
2019-01-31T16:39:45.200Z,94520.98
2019-01-31T16:42:16.601Z,94517.82
2019-01-31T16:44:48.318Z,94509.92
2019-01-31T16:47:19.669Z,94498.80
2019-01-31T16:49:50.784Z,94497.83
2019-01-31T16:52:21.875Z,94488.63
2019-01-31T16:54:52.974Z,94480.91
2019-01-31T16:57:25.078Z,94480.84
2019-01-31T16:59:56.047Z,94474.93
2019-01-31T17:02:27.135Z,94474.49
2019-01-31T17:04:58.318Z,94478.02
2019-01-31T17:07:29.569Z,94492.09
2019-01-31T17:10:00.880Z,94488.97
2019-01-31T17:12:32.214Z,94492.50
2019-01-31T17:15:05.129Z,94491.79
2019-01-31T17:17:36.208Z,94485.09
2019-01-31T17:20:12.478Z,94482.42
2019-01-31T17:22:43.965Z,94470.64
2019-01-31T17:25:15.521Z,94473.48
2019-01-31T17:27:46.619Z,94481.58
2019-01-31T17:30:21.185Z,94482.08
2019-01-31T17:32:52.750Z,94486.98
2019-01-31T17:35:23.935Z,94490.45
2019-01-31T17:37:55.018Z,94485.73
2019-01-31T17:40:29.844Z,94478.67
2019-01-31T17:43:01.218Z,94466.31
2019-01-31T17:45:32.272Z,94474.77
2019-01-31T17:48:04.896Z,94483.59
2019-01-31T17:50:36.385Z,94473.05
2019-01-31T17:53:07.553Z,94473.19
2019-01-31T17:55:41.444Z,94475.33
2019-01-31T17:58:11.394Z,94472.89
2019-01-31T18:00:49.034Z,94487.41
2019-01-31T18:03:20.251Z,94481.25
2019-01-31T18:05:51.288Z,94472.20
2019-01-31T18:08:22.438Z,94477.20
2019-01-31T18:10:53.817Z,94468.83
2019-01-31T18:13:24.998Z,94471.59
2019-01-31T18:15:56.039Z,94457.62
2019-01-31T18:18:27.388Z,94449.16
2019-01-31T18:20:58.484Z,94456.56
2019-01-31T18:23:29.571Z,94455.53
2019-01-31T18:26:02.015Z,94445.06
2019-01-31T18:28:33.100Z,94451.78
2019-01-31T18:31:04.705Z,94438.66
2019-01-31T18:33:35.802Z,94424.63
2019-01-31T18:36:07.057Z,94417.31
2019-01-31T18:38:39.477Z,94397.50
2019-01-31T18:41:10.443Z,94394.52
2019-01-31T18:43:42.543Z,94395.14
2019-01-31T18:46:13.905Z,94387.19
2019-01-31T18:48:44.924Z,94388.17
2019-01-31T18:51:16.319Z,94381.02
2019-01-31T18:53:47.525Z,94375.35
2019-01-31T18:56:18.512Z,94379.16
2019-01-31T18:58:49.633Z,94377.17
2019-01-31T19:01:20.755Z,94369.68
2019-01-31T19:03:52.362Z,94373.74
2019-01-31T19:06:23.997Z,94364.08
2019-01-31T19:08:55.338Z,94361.53
2019-01-31T19:11:26.383Z,94348.62
2019-01-31T19:13:57.487Z,94344.63
2019-01-31T19:16:28.459Z,94339.96
2019-01-31T19:18:59.470Z,94344.23
2019-01-31T19:21:30.787Z,94340.89
2019-01-31T19:24:01.850Z,94333.84
2019-01-31T19:26:35.009Z,94332.16
2019-01-31T19:29:07.604Z,94335.69
2019-01-31T19:31:40.397Z,94322.88
2019-01-31T19:34:11.612Z,94317.10
2019-01-31T19:36:42.946Z,94311.74
2019-01-31T19:39:18.122Z,94313.86
2019-01-31T19:41:49.537Z,94307.23
2019-01-31T19:44:20.644Z,94309.28
2019-01-31T19:46:51.925Z,94307.40
2019-01-31T19:49:26.345Z,94305.50
2019-01-31T19:51:57.392Z,94301.48
2019-01-31T19:54:28.557Z,94308.69
2019-01-31T19:56:59.531Z,94319.38
2019-01-31T19:59:30.575Z,94322.78
2019-01-31T20:02:01.723Z,94316.27
2019-01-31T20:04:34.751Z,94316.22
2019-01-31T20:07:05.721Z,94314.00
2019-01-31T20:09:37.459Z,94315.80
2019-01-31T20:12:09.056Z,94303.87
2019-01-31T20:14:40.519Z,94306.66
2019-01-31T20:17:11.542Z,94306.03
2019-01-31T20:19:42.698Z,94304.69
2019-01-31T20:22:13.984Z,94304.75
2019-01-31T20:24:46.131Z,94312.25
2019-01-31T20:27:17.287Z,94321.59
2019-01-31T20:29:48.368Z,94312.42
2019-01-31T20:32:19.397Z,94309.13
2019-01-31T20:34:50.481Z,94301.68
2019-01-31T20:37:21.519Z,94304.80
2019-01-31T20:39:52.550Z,94306.16
2019-01-31T20:42:23.784Z,94323.36
2019-01-31T20:44:55.499Z,94319.95
2019-01-31T20:47:26.956Z,94322.89
2019-01-31T20:49:58.243Z,94313.70
2019-01-31T20:52:29.292Z,94309.98
2019-01-31T20:55:00.346Z,94308.46
2019-01-31T20:57:31.319Z,94299.72
2019-01-31T21:00:03.404Z,94310.56
2019-01-31T21:02:35.255Z,94313.78
2019-01-31T21:05:06.688Z,94308.88
2019-01-31T21:07:37.955Z,94299.35
2019-01-31T21:10:10.119Z,94298.91
2019-01-31T21:12:41.244Z,94294.37
2019-01-31T21:15:19.383Z,94281.16
2019-01-31T21:17:50.742Z,94273.78
2019-01-31T21:20:22.931Z,94261.45
2019-01-31T21:22:54.368Z,94256.74
2019-01-31T21:25:25.662Z,94249.28
2019-01-31T21:27:56.701Z,94243.67
2019-01-31T21:30:31.226Z,94244.02
2019-01-31T21:33:02.339Z,94243.80
2019-01-31T21:35:33.669Z,94244.74
2019-01-31T21:38:05.183Z,94236.25
2019-01-31T21:40:38.111Z,94234.50
2019-01-31T21:43:09.641Z,94231.00
2019-01-31T21:45:41.004Z,94227.56
2019-01-31T21:48:12.443Z,94233.73
2019-01-31T21:50:43.823Z,94222.41
2019-01-31T21:53:14.795Z,94221.22
2019-01-31T21:55:47.044Z,94208.09
2019-01-31T21:58:18.010Z,94210.22
2019-01-31T22:00:49.089Z,94213.73
2019-01-31T22:03:20.616Z,94210.08
2019-01-31T22:05:52.007Z,94217.28
2019-01-31T22:08:23.074Z,94211.03
2019-01-31T22:10:54.139Z,94217.59
2019-01-31T22:13:25.197Z,94208.80
2019-01-31T22:15:56.370Z,94209.37
2019-01-31T22:18:27.682Z,94202.97
2019-01-31T22:20:58.941Z,94200.27
2019-01-31T22:23:29.996Z,94186.17
2019-01-31T22:26:01.054Z,94181.19
2019-01-31T22:28:32.026Z,94182.14
2019-01-31T22:31:03.245Z,94183.09
2019-01-31T22:33:35.029Z,94181.47
2019-01-31T22:36:06.341Z,94183.52
2019-01-31T22:38:37.317Z,94162.22
2019-01-31T22:41:08.542Z,94166.52
2019-01-31T22:43:39.513Z,94164.19
2019-01-31T22:46:10.742Z,94163.64
2019-01-31T22:48:42.002Z,94158.44
2019-01-31T22:51:13.416Z,94148.84
2019-01-31T22:53:44.741Z,94157.05
2019-01-31T22:56:15.994Z,94146.94
2019-01-31T22:58:46.965Z,94144.88
2019-01-31T23:01:35.578Z,94131.73
2019-01-31T23:04:07.936Z,94129.88
2019-01-31T23:06:39.250Z,94120.95
2019-01-31T23:09:12.650Z,94122.07
2019-01-31T23:11:43.934Z,94121.12
2019-01-31T23:14:15.371Z,94106.65
2019-01-31T23:16:46.437Z,94117.06
2019-01-31T23:19:17.417Z,94113.55
2019-01-31T23:21:49.513Z,94097.12
2019-01-31T23:24:20.578Z,94099.27
2019-01-31T23:26:51.629Z,94096.16
2019-01-31T23:29:22.908Z,94100.46
2019-01-31T23:31:54.035Z,94090.84
2019-01-31T23:34:25.317Z,94092.80
2019-01-31T23:36:56.598Z,94101.08
2019-01-31T23:39:27.654Z,94101.19
2019-01-31T23:41:58.639Z,94091.12
2019-01-31T23:44:29.915Z,94090.19
2019-01-31T23:47:01.000Z,94086.66
2019-01-31T23:49:32.304Z,94083.11
2019-01-31T23:52:03.391Z,94080.77
2019-01-31T23:54:35.239Z,94072.80
2019-01-31T23:57:06.417Z,94068.73
2019-01-31T23:59:37.701Z,94076.41
